createdAt,value
2022-10-26T00:01:21.993Z,100094.94
2022-10-26T00:03:49.984Z,100095.19
2022-10-26T00:06:19.799Z,100092.91
2022-10-26T00:08:49.837Z,100091.44
2022-10-26T00:11:20.005Z,100097.44
2022-10-26T00:13:48.591Z,100098.09
2022-10-26T00:16:18.807Z,100097.59
2022-10-26T00:18:46.657Z,100103.78
2022-10-26T00:21:15.058Z,100100.47
2022-10-26T00:23:42.839Z,100097.25
2022-10-26T00:26:11.199Z,100095.75
2022-10-26T00:28:40.673Z,100091.81
2022-10-26T00:31:13.264Z,100087.69
2022-10-26T00:33:41.053Z,100087.75
2022-10-26T00:36:10.390Z,100099.47
2022-10-26T00:38:38.256Z,100098.53
2022-10-26T00:41:06.793Z,100091.78
2022-10-26T00:43:36.772Z,100095.13
2022-10-26T00:46:09.344Z,100088.19
2022-10-26T00:48:40.331Z,100094.72
2022-10-26T00:51:11.483Z,100102.94
2022-10-26T00:53:39.818Z,100093.50
2022-10-26T00:56:08.173Z,100105.13
2022-10-26T00:58:37.180Z,100100.56
2022-10-26T01:01:06.432Z,100098.59
2022-10-26T01:03:36.785Z,100091.44
2022-10-26T01:06:06.500Z,100088.78
2022-10-26T01:08:35.165Z,100089.75
2022-10-26T01:11:04.239Z,100090.59
2022-10-26T01:13:35.786Z,100093.91
2022-10-26T01:16:20.478Z,100090.69
2022-10-26T01:18:58.955Z,100093.41
2022-10-26T01:21:49.736Z,100095.31
2022-10-26T01:24:47.307Z,100095.34
2022-10-26T01:27:31.551Z,100098.78
2022-10-26T01:30:29.905Z,100099.59
2022-10-26T01:33:24.968Z,100101.31
2022-10-26T01:36:04.209Z,100099.66
2022-10-26T01:38:37.770Z,100092.84
2022-10-26T01:41:12.985Z,100085.19
2022-10-26T01:43:47.341Z,100091.59
2022-10-26T01:46:20.975Z,100095.59
2022-10-26T01:48:53.017Z,100098.84
2022-10-26T01:51:22.169Z,100087.28
2022-10-26T01:53:50.317Z,100084.03
2022-10-26T01:56:22.193Z,100080.69
2022-10-26T01:59:04.429Z,100083.28
2022-10-26T02:01:51.465Z,100073.28
2022-10-26T02:04:35.767Z,100088.13
2022-10-26T02:07:10.060Z,100080.53
2022-10-26T02:09:47.201Z,100083.97
2022-10-26T02:12:24.129Z,100071.41
2022-10-26T02:14:58.483Z,100082.22
2022-10-26T02:17:30.665Z,100072.81
2022-10-26T02:20:04.201Z,100085.38
2022-10-26T02:22:36.031Z,100083.47
2022-10-26T02:25:13.196Z,100076.50
2022-10-26T02:27:45.652Z,100078.91
2022-10-26T02:30:14.476Z,100073.09
2022-10-26T02:32:48.032Z,100075.75
2022-10-26T02:35:18.498Z,100082.41
2022-10-26T02:37:49.157Z,100078.84
2022-10-26T02:40:21.725Z,100083.88
2022-10-26T02:42:53.705Z,100083.16
2022-10-26T02:45:27.040Z,100075.34
2022-10-26T02:47:57.160Z,100092.28
2022-10-26T02:50:32.760Z,100086.22
2022-10-26T02:53:08.772Z,100069.75
2022-10-26T02:55:41.230Z,100088.09
2022-10-26T02:58:15.965Z,100087.38
2022-10-26T03:00:44.427Z,100087.28
2022-10-26T03:03:14.773Z,100088.19
2022-10-26T03:05:43.801Z,100089.28
2022-10-26T03:08:11.924Z,100085.28
2022-10-26T03:10:42.538Z,100087.09
2022-10-26T03:13:11.456Z,100083.94
2022-10-26T03:15:39.483Z,100088.00
2022-10-26T03:18:07.997Z,100087.09
2022-10-26T03:20:37.320Z,100082.13
2022-10-26T03:23:05.114Z,100079.59
2022-10-26T03:25:32.879Z,100087.88
2022-10-26T03:28:02.381Z,100091.09
2022-10-26T03:30:31.535Z,100093.47
2022-10-26T03:32:59.415Z,100097.69
2022-10-26T03:35:27.229Z,100085.22
2022-10-26T03:37:56.479Z,100095.97
2022-10-26T03:40:24.325Z,100090.97
2022-10-26T03:42:52.469Z,100093.63
2022-10-26T03:45:20.530Z,100090.06
2022-10-26T03:47:49.779Z,100092.50
2022-10-26T03:50:19.695Z,100102.75
2022-10-26T03:52:48.811Z,100102.69
2022-10-26T03:55:19.341Z,100106.84
2022-10-26T03:57:47.156Z,100101.84
2022-10-26T04:00:17.249Z,100110.03
2022-10-26T04:02:46.925Z,100104.19
2022-10-26T04:05:16.575Z,100114.25
2022-10-26T04:07:44.620Z,100121.50
2022-10-26T04:10:12.543Z,100112.19
2022-10-26T04:12:41.735Z,100114.91
2022-10-26T04:15:10.245Z,100107.75
2022-10-26T04:17:38.048Z,100109.59
2022-10-26T04:20:06.698Z,100109.59
2022-10-26T04:22:35.128Z,100094.50
2022-10-26T04:25:02.977Z,100087.53
2022-10-26T04:27:30.781Z,100101.94
2022-10-26T04:30:00.160Z,100103.69
2022-10-26T04:32:28.066Z,100107.84
2022-10-26T04:34:55.843Z,100107.75
2022-10-26T04:37:23.639Z,100107.59
2022-10-26T04:39:51.398Z,100099.84
2022-10-26T04:42:19.161Z,100101.78
2022-10-26T04:44:46.912Z,100099.53
2022-10-26T04:47:16.025Z,100090.47
2022-10-26T04:49:43.790Z,100091.66
2022-10-26T04:52:11.557Z,100082.56
2022-10-26T04:54:39.401Z,100089.69
2022-10-26T04:57:07.310Z,100091.53
2022-10-26T04:59:35.114Z,100089.91
2022-10-26T05:02:03.079Z,100095.00
2022-10-26T05:04:32.379Z,100100.97
2022-10-26T05:07:00.153Z,100096.84
2022-10-26T05:09:27.940Z,100098.59
2022-10-26T05:11:55.691Z,100096.09
2022-10-26T05:14:23.588Z,100095.88
2022-10-26T05:16:51.819Z,100092.28
2022-10-26T05:19:19.631Z,100097.91
2022-10-26T05:21:48.752Z,100092.19
2022-10-26T05:24:16.548Z,100097.28
2022-10-26T05:26:44.520Z,100093.88
2022-10-26T05:29:12.461Z,100097.50
2022-10-26T05:31:40.292Z,100105.81
2022-10-26T05:34:08.079Z,100108.19
2022-10-26T05:36:35.819Z,100107.41
2022-10-26T05:39:05.205Z,100114.19
2022-10-26T05:41:32.952Z,100110.88
2022-10-26T05:44:00.957Z,100109.19
2022-10-26T05:46:28.738Z,100115.75
2022-10-26T05:48:56.508Z,100105.47
2022-10-26T05:51:24.260Z,100114.75
2022-10-26T05:53:54.685Z,100102.94
2022-10-26T05:56:36.614Z,100111.69
2022-10-26T05:59:05.068Z,100088.81
2022-10-26T06:01:48.842Z,100118.66
2022-10-26T06:04:28.214Z,100120.09
2022-10-26T06:06:58.520Z,100118.38
2022-10-26T06:09:27.157Z,100110.81
2022-10-26T06:11:57.097Z,100122.69
2022-10-26T06:14:25.399Z,100116.84
2022-10-26T06:17:07.822Z,100128.66
2022-10-26T06:19:48.345Z,100126.44
2022-10-26T06:22:29.401Z,100131.84
2022-10-26T06:25:05.289Z,100133.75
2022-10-26T06:27:44.826Z,100131.25
2022-10-26T06:30:13.166Z,100134.63
2022-10-26T06:32:42.501Z,100140.66
2022-10-26T06:35:25.196Z,100148.22
2022-10-26T06:37:55.360Z,100143.22
2022-10-26T06:40:24.869Z,100145.25
2022-10-26T06:42:54.661Z,100146.34
2022-10-26T06:45:23.289Z,100150.63
2022-10-26T06:47:58.375Z,100139.66
2022-10-26T06:50:37.645Z,100155.84
2022-10-26T06:53:22.209Z,100153.47
2022-10-26T06:55:51.772Z,100154.44
2022-10-26T06:58:24.204Z,100150.44
2022-10-26T07:00:54.883Z,100155.59
2022-10-26T07:03:22.720Z,100159.00
2022-10-26T07:05:50.806Z,100162.47
2022-10-26T07:08:18.841Z,100164.16
2022-10-26T07:10:48.014Z,100166.63
2022-10-26T07:13:15.941Z,100168.44
2022-10-26T07:15:45.117Z,100167.75
2022-10-26T07:18:12.907Z,100167.13
2022-10-26T07:20:42.909Z,100171.41
2022-10-26T07:23:11.905Z,100174.03
2022-10-26T07:25:40.648Z,100164.94
2022-10-26T07:28:10.153Z,100165.81
2022-10-26T07:30:39.249Z,100170.91
2022-10-26T07:33:10.572Z,100176.03
2022-10-26T07:35:38.673Z,100174.41
2022-10-26T07:38:07.168Z,100175.34
2022-10-26T07:40:35.700Z,100159.38
2022-10-26T07:43:03.468Z,100180.88
2022-10-26T07:45:31.636Z,100181.94
2022-10-26T07:47:59.416Z,100180.47
2022-10-26T07:50:28.559Z,100178.84
2022-10-26T07:52:56.332Z,100186.47
2022-10-26T07:55:24.213Z,100184.81
2022-10-26T07:57:54.712Z,100181.50
2022-10-26T08:00:23.383Z,100167.22
2022-10-26T08:02:51.180Z,100174.19
2022-10-26T08:05:19.347Z,100173.50
2022-10-26T08:07:49.074Z,100179.63
2022-10-26T08:10:17.546Z,100181.41
2022-10-26T08:12:45.448Z,100183.06
2022-10-26T08:15:13.268Z,100182.34
2022-10-26T08:17:41.033Z,100179.16
2022-10-26T08:20:09.977Z,100181.03
2022-10-26T08:22:37.737Z,100176.25
2022-10-26T08:25:07.464Z,100184.78
2022-10-26T08:27:35.258Z,100174.91
2022-10-26T08:30:03.041Z,100175.94
2022-10-26T08:32:30.876Z,100173.56
2022-10-26T08:34:58.632Z,100171.31
2022-10-26T08:37:28.241Z,100179.81
2022-10-26T08:39:57.489Z,100173.94
2022-10-26T08:42:34.896Z,100180.03
2022-10-26T08:45:08.605Z,100176.88
2022-10-26T08:47:43.090Z,100183.75
2022-10-26T08:50:15.415Z,100174.75
2022-10-26T08:52:50.949Z,100184.06
2022-10-26T08:55:23.468Z,100172.31
2022-10-26T08:57:54.521Z,100186.69
2022-10-26T09:00:24.565Z,100181.09
2022-10-26T09:02:53.469Z,100185.50
2022-10-26T09:05:28.740Z,100183.84
2022-10-26T09:08:06.133Z,100182.31
2022-10-26T09:10:40.932Z,100185.84
2022-10-26T09:13:24.745Z,100179.31
2022-10-26T09:16:03.457Z,100175.25
2022-10-26T09:18:42.502Z,100185.41
2022-10-26T09:21:17.209Z,100182.97
2022-10-26T09:23:57.039Z,100180.66
2022-10-26T09:26:33.492Z,100184.06
2022-10-26T09:29:06.608Z,100187.44
2022-10-26T09:31:43.971Z,100184.09
2022-10-26T09:34:21.475Z,100191.66
2022-10-26T09:36:54.189Z,100185.00
2022-10-26T09:39:29.686Z,100189.28
2022-10-26T09:42:01.273Z,100191.00
2022-10-26T09:44:35.678Z,100193.56
2022-10-26T09:47:07.655Z,100194.44
2022-10-26T09:49:42.712Z,100192.81
2022-10-26T09:54:39.465Z,100189.81
2022-10-26T09:57:08.829Z,100190.88
2022-10-26T09:59:41.139Z,100185.19
2022-10-26T10:02:35.540Z,100180.19
2022-10-26T10:05:32.574Z,100192.25
2022-10-26T10:08:19.075Z,100189.13
2022-10-26T10:10:56.154Z,100190.94
2022-10-26T10:13:26.765Z,100182.69
2022-10-26T10:15:58.688Z,100183.69
2022-10-26T10:18:26.716Z,100183.75
2022-10-26T10:20:57.565Z,100167.75
2022-10-26T10:23:28.996Z,100189.84
2022-10-26T10:26:06.043Z,100173.97
2022-10-26T10:28:35.134Z,100176.72
2022-10-26T10:31:06.368Z,100175.09
2022-10-26T10:33:39.611Z,100171.69
2022-10-26T10:36:11.463Z,100160.75
2022-10-26T10:38:41.777Z,100170.06
2022-10-26T10:41:18.172Z,100160.81
2022-10-26T10:43:49.861Z,100170.19
2022-10-26T10:46:25.695Z,100146.53
2022-10-26T10:49:01.775Z,100166.84
2022-10-26T10:51:31.613Z,100159.28
2022-10-26T10:53:59.440Z,100164.34
2022-10-26T10:56:35.400Z,100157.66
2022-10-26T10:59:22.386Z,100160.19
2022-10-26T11:01:59.046Z,100168.66
2022-10-26T11:04:45.828Z,100161.97
2022-10-26T11:07:16.273Z,100161.28
2022-10-26T11:09:47.836Z,100145.44
2022-10-26T11:12:19.960Z,100152.47
2022-10-26T11:14:53.711Z,100152.63
2022-10-26T11:17:26.882Z,100148.50
2022-10-26T11:19:58.653Z,100150.31
2022-10-26T11:22:30.104Z,100150.34
2022-10-26T11:25:01.569Z,100146.25
2022-10-26T11:27:35.184Z,100148.00
2022-10-26T11:30:06.952Z,100146.31
2022-10-26T11:32:44.321Z,100148.84
2022-10-26T11:35:17.901Z,100150.53
2022-10-26T11:37:50.884Z,100155.59
2022-10-26T11:40:29.318Z,100152.19
2022-10-26T11:43:06.422Z,100153.06
2022-10-26T11:45:37.101Z,100157.25
2022-10-26T11:48:15.862Z,100152.19
2022-10-26T11:50:47.580Z,100154.69
2022-10-26T11:53:18.726Z,100159.72
2022-10-26T11:55:52.246Z,100161.34
2022-10-26T11:58:23.945Z,100158.78
2022-10-26T12:00:57.690Z,100165.50
2022-10-26T12:03:29.470Z,100169.72
2022-10-26T12:05:57.315Z,100165.63
2022-10-26T12:08:28.332Z,100163.97
2022-10-26T12:11:03.435Z,100160.72
2022-10-26T12:13:37.915Z,100163.28
2022-10-26T12:16:12.660Z,100159.97
2022-10-26T12:18:55.584Z,100160.06
2022-10-26T12:21:27.191Z,100159.25
2022-10-26T12:23:56.589Z,100166.09
2022-10-26T12:26:57.353Z,100166.97
2022-10-26T12:29:47.253Z,100163.56
2022-10-26T12:32:51.638Z,100158.41
2022-10-26T12:35:54.813Z,100146.53
2022-10-26T12:39:00.092Z,100154.94
2022-10-26T12:41:29.086Z,100156.63
2022-10-26T12:43:59.178Z,100148.22
2022-10-26T12:46:42.495Z,100149.06
2022-10-26T12:49:58.195Z,100147.41
2022-10-26T12:52:40.788Z,100153.34
2022-10-26T12:55:49.936Z,100151.66
2022-10-26T12:58:54.166Z,100149.09
2022-10-26T13:04:51.243Z,100143.13
2022-10-26T13:07:21.892Z,100150.72
2022-10-26T13:09:58.887Z,100144.81
2022-10-26T13:12:28.351Z,100138.94
2022-10-26T13:15:01.472Z,100140.69
2022-10-26T13:17:32.422Z,100141.56
2022-10-26T13:20:02.128Z,100138.25
2022-10-26T13:22:31.004Z,100139.97
2022-10-26T13:25:03.120Z,100141.66
2022-10-26T13:27:44.895Z,100144.19
2022-10-26T13:30:43.881Z,100141.66
2022-10-26T13:33:37.782Z,100145.84
2022-10-26T13:36:16.673Z,100163.56
2022-10-26T13:38:47.229Z,100166.84
2022-10-26T13:41:23.863Z,100162.59
2022-10-26T13:43:53.182Z,100170.13
2022-10-26T13:46:28.424Z,100167.53
2022-10-26T13:49:04.810Z,100170.00
2022-10-26T13:51:41.886Z,100171.66
2022-10-26T13:54:21.666Z,100172.44
2022-10-26T13:57:03.219Z,100169.88
2022-10-26T13:59:34.301Z,100173.19
2022-10-26T14:02:15.743Z,100179.06
2022-10-26T14:04:47.162Z,100175.59
2022-10-26T14:07:22.751Z,100177.25
2022-10-26T14:09:52.655Z,100167.88
2022-10-26T14:12:22.436Z,100178.84
2022-10-26T14:14:51.434Z,100185.53
2022-10-26T14:17:25.534Z,100189.81
2022-10-26T14:19:54.200Z,100191.44
2022-10-26T14:22:25.270Z,100193.03
2022-10-26T14:27:27.560Z,100193.88
2022-10-26T14:32:44.285Z,100191.25
2022-10-26T14:35:13.613Z,100199.63
2022-10-26T14:37:46.552Z,100201.28
2022-10-26T14:40:18.218Z,100207.97
2022-10-26T14:42:51.289Z,100208.75
2022-10-26T14:45:43.334Z,100204.50
2022-10-26T14:48:21.892Z,100211.19
2022-10-26T14:51:00.397Z,100212.81
2022-10-26T14:53:35.423Z,100219.53
2022-10-26T14:56:05.095Z,100217.84
2022-10-26T14:58:35.252Z,100216.94
2022-10-26T15:01:16.185Z,100216.00
2022-10-26T15:03:45.409Z,100218.50
2022-10-26T15:06:34.224Z,100227.69
2022-10-26T15:09:04.614Z,100214.16
2022-10-26T15:11:34.488Z,100220.91
2022-10-26T15:14:04.176Z,100227.59
2022-10-26T15:16:35.987Z,100182.59
2022-10-26T15:19:10.302Z,100224.88
2022-10-26T15:21:41.112Z,100222.19
2022-10-26T15:24:27.490Z,100222.03
2022-10-26T15:26:55.710Z,100226.91
2022-10-26T15:29:39.302Z,100231.00
2022-10-26T15:32:20.489Z,100239.28
2022-10-26T15:34:50.739Z,100243.38
2022-10-26T15:37:19.816Z,100231.44
2022-10-26T15:39:47.940Z,100239.88
2022-10-26T15:42:15.850Z,100237.28
2022-10-26T15:44:44.968Z,100233.81
2022-10-26T15:47:19.399Z,100246.34
2022-10-26T15:49:47.252Z,100243.75
2022-10-26T15:52:15.145Z,100249.50
2022-10-26T15:54:42.967Z,100252.78
2022-10-26T15:57:16.708Z,100257.75
2022-10-26T15:59:48.380Z,100259.34
2022-10-26T16:02:17.405Z,100255.94
2022-10-26T16:04:45.353Z,100262.59
2022-10-26T16:07:14.363Z,100256.63
2022-10-26T16:09:43.077Z,100261.59
2022-10-26T16:12:11.892Z,100264.91
2022-10-26T16:15:00.593Z,100267.34
2022-10-26T16:17:29.112Z,100268.94
2022-10-26T16:19:56.876Z,100275.63
2022-10-26T16:22:25.037Z,100273.03
2022-10-26T16:24:52.813Z,100272.13
2022-10-26T16:27:20.598Z,100272.94
2022-10-26T16:29:48.494Z,100274.47
2022-10-26T16:32:16.298Z,100280.16
2022-10-26T16:34:45.510Z,100280.94
2022-10-26T16:37:13.251Z,100277.56
2022-10-26T16:39:41.010Z,100274.13
2022-10-26T16:42:08.780Z,100263.03
2022-10-26T16:44:37.908Z,100276.50
2022-10-26T16:47:05.839Z,100281.53
2022-10-26T16:49:34.166Z,100279.91
2022-10-26T16:52:04.292Z,100287.56
2022-10-26T16:54:32.069Z,100291.78
2022-10-26T16:56:59.841Z,100287.56
2022-10-26T16:59:27.701Z,100291.59
2022-10-26T17:01:55.606Z,100299.16
2022-10-26T17:04:23.566Z,100299.06
2022-10-26T17:06:51.730Z,100305.75
2022-10-26T17:09:20.945Z,100309.06
2022-10-26T17:11:48.888Z,100313.22
2022-10-26T17:14:17.224Z,100317.38
2022-10-26T17:16:44.967Z,100323.22
2022-10-26T17:19:12.975Z,100329.03
2022-10-26T17:21:40.729Z,100333.22
2022-10-26T17:24:08.713Z,100333.94
2022-10-26T17:26:37.876Z,100337.31
2022-10-26T17:29:05.759Z,100331.44
2022-10-26T17:31:34.235Z,100334.81
2022-10-26T17:34:02.324Z,100343.19
2022-10-26T17:36:31.639Z,100348.19
2022-10-26T17:39:00.765Z,100356.63
2022-10-26T17:41:28.732Z,100356.66
2022-10-26T17:43:58.045Z,100365.88
2022-10-26T17:46:27.922Z,100359.09
2022-10-26T17:48:56.395Z,100363.25
2022-10-26T17:51:24.785Z,100362.47
2022-10-26T17:53:52.756Z,100348.97
2022-10-26T17:56:22.195Z,100353.19
2022-10-26T17:58:53.688Z,100351.47
2022-10-26T18:01:23.495Z,100367.47
2022-10-26T18:03:51.458Z,100364.06
2022-10-26T18:06:19.357Z,100370.81
2022-10-26T18:08:47.285Z,100363.25
2022-10-26T18:11:18.575Z,100373.38
2022-10-26T18:13:48.537Z,100379.25
2022-10-26T18:16:19.053Z,100374.16
2022-10-26T18:18:50.072Z,100371.47
2022-10-26T18:21:19.529Z,100383.28
2022-10-26T18:23:47.956Z,100384.97
2022-10-26T18:26:18.612Z,100383.19
2022-10-26T18:28:47.070Z,100385.72
2022-10-26T18:31:16.805Z,100371.38
2022-10-26T18:33:44.936Z,100385.72
2022-10-26T18:36:15.627Z,100386.47
2022-10-26T18:38:44.438Z,100374.38
2022-10-26T18:41:14.161Z,100384.63
2022-10-26T18:43:42.699Z,100382.81
2022-10-26T18:46:14.155Z,100386.09
2022-10-26T18:48:44.365Z,100379.47
2022-10-26T18:51:15.204Z,100387.97
2022-10-26T18:53:44.636Z,100398.16
2022-10-26T18:56:14.101Z,100399.78
2022-10-26T18:58:43.760Z,100379.47
2022-10-26T19:01:13.421Z,100408.06
2022-10-26T19:03:42.359Z,100416.41
2022-10-26T19:06:12.339Z,100428.91
2022-10-26T19:08:42.510Z,100421.94
2022-10-26T19:11:12.566Z,100423.81
2022-10-26T19:13:40.515Z,100429.44
2022-10-26T19:16:21.718Z,100438.47
2022-10-26T19:18:58.993Z,100438.22
2022-10-26T19:21:28.169Z,100432.88
2022-10-26T19:23:59.404Z,100434.78
2022-10-26T19:26:33.381Z,100436.56
2022-10-26T19:29:05.881Z,100435.88
2022-10-26T19:31:35.620Z,100431.09
2022-10-26T19:34:04.400Z,100442.88
2022-10-26T19:36:32.208Z,100457.34
2022-10-26T19:39:02.014Z,100450.72
2022-10-26T19:41:31.298Z,100456.88
2022-10-26T19:46:32.781Z,100473.97
2022-10-26T19:49:02.482Z,100469.78
2022-10-26T19:51:32.131Z,100479.75
2022-10-26T19:54:03.762Z,100494.00
2022-10-26T19:56:32.431Z,100491.44
2022-10-26T19:59:00.977Z,100489.72
2022-10-26T20:01:29.145Z,100502.09
2022-10-26T20:03:57.208Z,100499.44
2022-10-26T20:06:25.054Z,100499.44
2022-10-26T20:08:52.836Z,100499.53
2022-10-26T20:11:21.976Z,100499.59
2022-10-26T20:13:49.788Z,100497.16
2022-10-26T20:16:18.615Z,100498.06
2022-10-26T20:18:48.976Z,100498.13
2022-10-26T20:21:18.324Z,100505.75
2022-10-26T20:23:46.412Z,100510.81
2022-10-26T20:26:18.449Z,100511.59
2022-10-26T20:28:51.285Z,100514.94
2022-10-26T20:31:19.700Z,100502.25
2022-10-26T20:33:51.436Z,100494.56
2022-10-26T20:36:19.269Z,100499.69
2022-10-26T20:38:47.594Z,100496.38
2022-10-26T20:41:15.912Z,100505.63
2022-10-26T20:43:44.341Z,100497.25
2022-10-26T20:46:21.800Z,100498.06
2022-10-26T20:48:50.365Z,100504.84
2022-10-26T20:51:23.808Z,100501.56
2022-10-26T20:54:04.470Z,100503.28
2022-10-26T20:56:34.840Z,100501.38
2022-10-26T20:59:04.983Z,100501.22
2022-10-26T21:01:38.135Z,100519.03
2022-10-26T21:04:06.235Z,100519.69
2022-10-26T21:06:40.058Z,100518.00
2022-10-26T21:09:08.994Z,100523.03
2022-10-26T21:11:36.804Z,100521.25
2022-10-26T21:14:06.363Z,100533.72
2022-10-26T21:16:35.678Z,100533.69
2022-10-26T21:19:04.921Z,100536.06
2022-10-26T21:21:33.145Z,100532.66
2022-10-26T21:24:02.371Z,100533.53
2022-10-26T21:26:30.481Z,100537.75
2022-10-26T21:28:58.288Z,100532.75
2022-10-26T21:31:26.132Z,100528.41
2022-10-26T21:33:55.321Z,100527.72
2022-10-26T21:36:23.140Z,100532.75
2022-10-26T21:38:50.887Z,100539.47
2022-10-26T21:41:20.649Z,100523.34
2022-10-26T21:43:55.959Z,100525.00
2022-10-26T21:46:31.449Z,100518.41
2022-10-26T21:49:00.524Z,100515.91
2022-10-26T21:51:28.320Z,100515.94
2022-10-26T21:53:56.079Z,100520.97
2022-10-26T21:56:23.939Z,100510.06
2022-10-26T21:58:51.687Z,100519.31
2022-10-26T22:01:21.226Z,100522.59
2022-10-26T22:03:49.717Z,100536.81
2022-10-26T22:06:23.485Z,100530.09
2022-10-26T22:08:51.305Z,100528.34
2022-10-26T22:11:21.105Z,100528.31
2022-10-26T22:13:50.385Z,100524.09
2022-10-26T22:16:20.880Z,100517.72
2022-10-26T22:18:50.103Z,100520.91
2022-10-26T22:21:19.476Z,100523.28
2022-10-26T22:23:48.888Z,100529.91
2022-10-26T22:26:19.503Z,100530.53
2022-10-26T22:28:48.612Z,100535.06
2022-10-26T22:31:18.955Z,100534.69
2022-10-26T22:33:46.846Z,100543.94
2022-10-26T22:36:16.898Z,100540.81
2022-10-26T22:38:45.443Z,100545.25
2022-10-26T22:41:14.532Z,100550.38
2022-10-26T22:43:42.325Z,100547.13
2022-10-26T22:46:13.992Z,100555.72
2022-10-26T22:48:42.213Z,100561.84
2022-10-26T22:51:12.392Z,100550.84
2022-10-26T22:53:40.271Z,100556.25
2022-10-26T22:56:10.239Z,100557.06
2022-10-26T22:58:40.620Z,100564.88
2022-10-26T23:01:10.346Z,100562.56
2022-10-26T23:03:38.463Z,100561.38
2022-10-26T23:06:08.542Z,100552.19
2022-10-26T23:08:36.418Z,100565.03
2022-10-26T23:11:06.824Z,100564.38
2022-10-26T23:13:35.015Z,100564.50
2022-10-26T23:16:07.743Z,100563.84
2022-10-26T23:18:36.055Z,100575.72
2022-10-26T23:21:05.016Z,100563.84
2022-10-26T23:23:33.084Z,100562.31
2022-10-26T23:26:01.859Z,100565.66
2022-10-26T23:28:30.114Z,100567.38
2022-10-26T23:30:58.241Z,100561.59
2022-10-26T23:33:27.601Z,100568.47
2022-10-26T23:35:55.393Z,100566.00
2022-10-26T23:38:23.153Z,100570.19
2022-10-26T23:40:52.181Z,100574.41
2022-10-26T23:43:20.205Z,100575.25
2022-10-26T23:45:48.200Z,100579.44
2022-10-26T23:48:17.019Z,100581.94
2022-10-26T23:50:47.497Z,100579.44
2022-10-26T23:53:16.282Z,100578.56
2022-10-26T23:55:44.429Z,100582.75
2022-10-26T23:58:12.983Z,100583.53
